sensor_id;sensor_type;location;lat;lon;timestamp;pressure;altitude;pressure_sealevel;temperature;humidity
3294;BME280;1659;51.470;6.770;2022-09-17T00:02:16;101050.53;;;11.00;82.90
3294;BME280;1659;51.470;6.770;2022-09-17T00:04:43;101058.47;;;11.00;82.85
3294;BME280;1659;51.470;6.770;2022-09-17T00:07:09;101058.47;;;11.00;82.95
3294;BME280;1659;51.470;6.770;2022-09-17T00:09:36;101066.38;;;11.01;83.15
3294;BME280;1659;51.470;6.770;2022-09-17T00:12:03;101066.38;;;11.03;83.11
3294;BME280;1659;51.470;6.770;2022-09-17T00:14:29;101061.91;;;11.06;83.28
3294;BME280;1659;51.470;6.770;2022-09-17T00:16:56;101072.41;;;11.09;83.38
3294;BME280;1659;51.470;6.770;2022-09-17T00:19:24;101068.00;;;11.10;83.32
3294;BME280;1659;51.470;6.770;2022-09-17T00:21:51;101061.81;;;11.11;83.50
3294;BME280;1659;51.470;6.770;2022-09-17T00:24:18;101065.38;;;11.08;83.86
3294;BME280;1659;51.470;6.770;2022-09-17T00:26:46;101059.25;;;11.06;84.09
3294;BME280;1659;51.470;6.770;2022-09-17T00:29:14;101052.19;;;11.05;84.06
3294;BME280;1659;51.470;6.770;2022-09-17T00:31:41;101052.19;;;11.05;84.16
3294;BME280;1659;51.470;6.770;2022-09-17T00:34:08;101056.66;;;11.03;84.41
3294;BME280;1659;51.470;6.770;2022-09-17T00:36:38;101052.25;;;11.02;84.58
3294;BME280;1659;51.470;6.770;2022-09-17T00:39:07;101048.75;;;11.00;84.73
3294;BME280;1659;51.470;6.770;2022-09-17T00:41:35;101057.56;;;11.01;84.89
3294;BME280;1659;51.470;6.770;2022-09-17T00:44:39;101069.06;;;11.00;84.90
3294;BME280;1659;51.470;6.770;2022-09-17T00:47:11;101066.41;;;11.00;85.07
3294;BME280;1659;51.470;6.770;2022-09-17T00:49:38;101056.69;;;11.00;85.02
3294;BME280;1659;51.470;6.770;2022-09-17T00:52:08;101065.47;;;11.01;84.97
3294;BME280;1659;51.470;6.770;2022-09-17T00:54:38;101054.91;;;11.01;85.13
3294;BME280;1659;51.470;6.770;2022-09-17T00:57:05;101061.97;;;11.02;84.98
3294;BME280;1659;51.470;6.770;2022-09-17T00:59:32;101070.78;;;11.01;85.30
3294;BME280;1659;51.470;6.770;2022-09-17T01:01:59;101069.88;;;11.02;85.04
3294;BME280;1659;51.470;6.770;2022-09-17T01:04:27;101076.13;;;10.99;85.04
3294;BME280;1659;51.470;6.770;2022-09-17T01:07:00;101072.66;;;10.94;85.18
3294;BME280;1659;51.470;6.770;2022-09-17T01:09:38;101070.09;;;10.88;85.31
3294;BME280;1659;51.470;6.770;2022-09-17T01:12:30;101077.22;;;10.83;85.63
3294;BME280;1659;51.470;6.770;2022-09-17T01:15:11;101076.44;;;10.74;85.62
3294;BME280;1659;51.470;6.770;2022-09-17T01:17:44;101079.19;;;10.70;85.88
3294;BME280;1659;51.470;6.770;2022-09-17T01:23:39;101078.44;;;10.60;85.71
3294;BME280;1659;51.470;6.770;2022-09-17T01:26:34;101071.44;;;10.56;85.88
3294;BME280;1659;51.470;6.770;2022-09-17T01:29:13;101075.88;;;10.55;86.15
3294;BME280;1659;51.470;6.770;2022-09-17T01:31:49;101073.22;;;10.55;86.12
3294;BME280;1659;51.470;6.770;2022-09-17T01:34:22;101076.72;;;10.56;86.15
3294;BME280;1659;51.470;6.770;2022-09-17T01:37:02;101074.94;;;10.58;86.01
3294;BME280;1659;51.470;6.770;2022-09-17T01:39:36;101072.28;;;10.58;86.23
3294;BME280;1659;51.470;6.770;2022-09-17T01:42:15;101078.44;;;10.58;85.96
3294;BME280;1659;51.470;6.770;2022-09-17T01:44:49;101080.19;;;10.61;86.24
3294;BME280;1659;51.470;6.770;2022-09-17T01:47:22;101083.69;;;10.63;86.49
3294;BME280;1659;51.470;6.770;2022-09-17T01:49:53;101084.50;;;10.68;86.21
3294;BME280;1659;51.470;6.770;2022-09-17T01:52:22;101077.38;;;10.72;86.29
3294;BME280;1659;51.470;6.770;2022-09-17T01:54:53;101079.06;;;10.77;86.31
3294;BME280;1659;51.470;6.770;2022-09-17T01:57:25;101092.25;;;10.81;86.28
3294;BME280;1659;51.470;6.770;2022-09-17T01:59:57;101079.84;;;10.84;86.23
3294;BME280;1659;51.470;6.770;2022-09-17T02:02:29;101077.16;;;10.87;86.19
3294;BME280;1659;51.470;6.770;2022-09-17T02:05:00;101083.31;;;10.88;86.19
3294;BME280;1659;51.470;6.770;2022-09-17T02:07:30;101092.13;;;10.87;86.07
3294;BME280;1659;51.470;6.770;2022-09-17T02:10:00;101093.03;;;10.87;86.15
3294;BME280;1659;51.470;6.770;2022-09-17T02:12:32;101097.44;;;10.87;86.36
3294;BME280;1659;51.470;6.770;2022-09-17T02:15:01;101093.00;;;10.89;86.59
3294;BME280;1659;51.470;6.770;2022-09-17T02:17:34;101090.38;;;10.87;86.09
3294;BME280;1659;51.470;6.770;2022-09-17T02:20:03;101087.72;;;10.89;86.42
3294;BME280;1659;51.470;6.770;2022-09-17T02:22:36;101085.94;;;10.89;86.40
3294;BME280;1659;51.470;6.770;2022-09-17T02:25:07;101091.22;;;10.91;86.55
3294;BME280;1659;51.470;6.770;2022-09-17T02:27:41;101086.78;;;10.91;86.49
3294;BME280;1659;51.470;6.770;2022-09-17T02:30:13;101088.59;;;10.89;86.46
3294;BME280;1659;51.470;6.770;2022-09-17T02:32:42;101092.09;;;10.90;86.61
3294;BME280;1659;51.470;6.770;2022-09-17T02:35:09;101093.84;;;10.91;86.63
3294;BME280;1659;51.470;6.770;2022-09-17T02:37:38;101089.44;;;10.91;86.40
3294;BME280;1659;51.470;6.770;2022-09-17T02:40:06;101094.75;;;10.90;86.37
3294;BME280;1659;51.470;6.770;2022-09-17T02:42:42;101108.91;;;10.86;86.53
3294;BME280;1659;51.470;6.770;2022-09-17T02:45:20;101107.25;;;10.79;86.54
3294;BME280;1659;51.470;6.770;2022-09-17T02:48:02;101098.56;;;10.70;86.78
3294;BME280;1659;51.470;6.770;2022-09-17T02:50:51;101099.53;;;10.63;86.85
3294;BME280;1659;51.470;6.770;2022-09-17T02:53:32;101109.28;;;10.58;86.69
3294;BME280;1659;51.470;6.770;2022-09-17T02:56:09;101108.47;;;10.53;86.83
3294;BME280;1659;51.470;6.770;2022-09-17T02:58:44;101116.41;;;10.51;87.00
3294;BME280;1659;51.470;6.770;2022-09-17T03:01:16;101108.47;;;10.53;87.10
3294;BME280;1659;51.470;6.770;2022-09-17T03:03:47;101103.19;;;10.54;87.10
3294;BME280;1659;51.470;6.770;2022-09-17T03:06:15;101109.28;;;10.58;87.16
3294;BME280;1659;51.470;6.770;2022-09-17T03:08:42;101107.47;;;10.62;87.00
3294;BME280;1659;51.470;6.770;2022-09-17T03:11:10;101105.66;;;10.65;86.78
3294;BME280;1659;51.470;6.770;2022-09-17T03:13:37;101101.22;;;10.67;86.56
3294;BME280;1659;51.470;6.770;2022-09-17T03:16:04;101099.41;;;10.71;86.84
3294;BME280;1659;51.470;6.770;2022-09-17T03:18:31;101101.16;;;10.73;86.78
3294;BME280;1659;51.470;6.770;2022-09-17T03:20:59;101108.13;;;10.77;86.51
3294;BME280;1659;51.470;6.770;2022-09-17T03:23:26;101101.94;;;10.82;86.43
3294;BME280;1659;51.470;6.770;2022-09-17T03:25:53;101115.06;;;10.86;86.46
3294;BME280;1659;51.470;6.770;2022-09-17T03:28:20;101106.22;;;10.89;86.47
3294;BME280;1659;51.470;6.770;2022-09-17T03:30:46;101110.56;;;10.93;86.25
3294;BME280;1659;51.470;6.770;2022-09-17T03:33:13;101108.78;;;10.95;86.35
3294;BME280;1659;51.470;6.770;2022-09-17T03:35:41;101104.31;;;10.97;86.24
3294;BME280;1659;51.470;6.770;2022-09-17T03:38:09;101104.31;;;10.99;86.04
3294;BME280;1659;51.470;6.770;2022-09-17T03:40:36;101097.19;;;11.02;85.96
3294;BME280;1659;51.470;6.770;2022-09-17T03:43:02;101099.81;;;11.05;86.21
3294;BME280;1659;51.470;6.770;2022-09-17T03:45:30;101104.22;;;11.06;85.83
3294;BME280;1659;51.470;6.770;2022-09-17T03:47:57;101102.41;;;11.08;85.94
3294;BME280;1659;51.470;6.770;2022-09-17T03:50:23;101115.63;;;11.10;85.60
3294;BME280;1659;51.470;6.770;2022-09-17T03:52:50;101117.34;;;11.11;85.66
3294;BME280;1659;51.470;6.770;2022-09-17T03:55:18;101118.28;;;11.08;85.64
3294;BME280;1659;51.470;6.770;2022-09-17T03:57:44;101115.66;;;11.05;85.61
3294;BME280;1659;51.470;6.770;2022-09-17T04:00:12;101121.91;;;11.01;85.70
3294;BME280;1659;51.470;6.770;2022-09-17T04:02:41;101128.09;;;10.99;85.62
3294;BME280;1659;51.470;6.770;2022-09-17T04:05:08;101129.94;;;10.93;85.80
3294;BME280;1659;51.470;6.770;2022-09-17T04:07:35;101123.81;;;10.90;85.79
3294;BME280;1659;51.470;6.770;2022-09-17T04:10:02;101124.72;;;10.90;85.95
3294;BME280;1659;51.470;6.770;2022-09-17T04:12:30;101116.75;;;10.92;86.08
3294;BME280;1659;51.470;6.770;2022-09-17T04:14:57;101112.34;;;10.92;86.01
3294;BME280;1659;51.470;6.770;2022-09-17T04:17:23;101128.19;;;10.94;86.10
3294;BME280;1659;51.470;6.770;2022-09-17T04:19:50;101123.78;;;10.94;85.98
3294;BME280;1659;51.470;6.770;2022-09-17T04:22:17;101135.22;;;10.93;85.94
3294;BME280;1659;51.470;6.770;2022-09-17T04:24:44;101137.03;;;10.91;85.89
3294;BME280;1659;51.470;6.770;2022-09-17T04:27:10;101146.75;;;10.91;86.22
3294;BME280;1659;51.470;6.770;2022-09-17T04:29:38;101140.53;;;10.92;86.35
3294;BME280;1659;51.470;6.770;2022-09-17T04:32:05;101144.97;;;10.91;86.36
3294;BME280;1659;51.470;6.770;2022-09-17T04:34:31;101144.97;;;10.91;86.31
3294;BME280;1659;51.470;6.770;2022-09-17T04:36:58;101127.31;;;10.92;86.30
3294;BME280;1659;51.470;6.770;2022-09-17T04:39:25;101125.59;;;10.91;86.28
3294;BME280;1659;51.470;6.770;2022-09-17T04:41:51;101122.09;;;10.89;86.55
3294;BME280;1659;51.470;6.770;2022-09-17T04:44:18;101120.38;;;10.85;86.48
3294;BME280;1659;51.470;6.770;2022-09-17T04:46:46;101129.25;;;10.82;86.65
3294;BME280;1659;51.470;6.770;2022-09-17T04:49:12;101128.41;;;10.79;86.60
3294;BME280;1659;51.470;6.770;2022-09-17T04:51:39;101135.50;;;10.75;86.74
3294;BME280;1659;51.470;6.770;2022-09-17T04:54:05;101137.34;;;10.68;86.70
3294;BME280;1659;51.470;6.770;2022-09-17T04:56:32;101143.63;;;10.61;87.00
3294;BME280;1659;51.470;6.770;2022-09-17T04:58:59;101145.47;;;10.54;86.99
3294;BME280;1659;51.470;6.770;2022-09-17T05:01:25;101152.56;;;10.48;87.20
3294;BME280;1659;51.470;6.770;2022-09-17T05:03:53;101154.41;;;10.43;87.49
3294;BME280;1659;51.470;6.770;2022-09-17T05:06:20;101151.84;;;10.36;87.44
3294;BME280;1659;51.470;6.770;2022-09-17T05:08:46;101151.00;;;10.33;87.69
3294;BME280;1659;51.470;6.770;2022-09-17T05:11:13;101155.38;;;10.31;87.79
3294;BME280;1659;51.470;6.770;2022-09-17T05:13:39;101168.63;;;10.29;87.87
3294;BME280;1659;51.470;6.770;2022-09-17T05:16:06;101159.78;;;10.30;87.76
3294;BME280;1659;51.470;6.770;2022-09-17T05:18:32;101173.88;;;10.31;87.86
3294;BME280;1659;51.470;6.770;2022-09-17T05:21:00;101180.06;;;10.33;87.97
3294;BME280;1659;51.470;6.770;2022-09-17T05:23:27;101179.16;;;10.34;87.82
3294;BME280;1659;51.470;6.770;2022-09-17T05:25:56;101178.28;;;10.36;87.87
3294;BME280;1659;51.470;6.770;2022-09-17T05:28:23;101187.00;;;10.42;87.96
3294;BME280;1659;51.470;6.770;2022-09-17T05:30:49;101190.50;;;10.45;87.68
3294;BME280;1659;51.470;6.770;2022-09-17T05:33:16;101187.78;;;10.48;87.88
3294;BME280;1659;51.470;6.770;2022-09-17T05:35:43;101176.34;;;10.49;87.85
3294;BME280;1659;51.470;6.770;2022-09-17T05:38:11;101184.25;;;10.51;87.69
3294;BME280;1659;51.470;6.770;2022-09-17T05:40:38;101183.34;;;10.53;87.68
3294;BME280;1659;51.470;6.770;2022-09-17T05:43:06;101178.94;;;10.55;87.71
3294;BME280;1659;51.470;6.770;2022-09-17T05:45:33;101172.75;;;10.55;87.73
3294;BME280;1659;51.470;6.770;2022-09-17T05:48:01;101171.88;;;10.56;87.56
3294;BME280;1659;51.470;6.770;2022-09-17T05:50:28;101181.53;;;10.57;87.86
3294;BME280;1659;51.470;6.770;2022-09-17T05:52:55;101174.50;;;10.57;87.70
3294;BME280;1659;51.470;6.770;2022-09-17T05:55:23;101177.13;;;10.57;87.66
3294;BME280;1659;51.470;6.770;2022-09-17T05:57:51;101183.28;;;10.60;87.65
3294;BME280;1659;51.470;6.770;2022-09-17T06:00:18;101186.78;;;10.60;87.58
3294;BME280;1659;51.470;6.770;2022-09-17T06:02:45;101188.53;;;10.61;87.57
3294;BME280;1659;51.470;6.770;2022-09-17T06:05:11;101188.53;;;10.61;87.69
3294;BME280;1659;51.470;6.770;2022-09-17T06:07:38;101192.06;;;10.62;87.58
3294;BME280;1659;51.470;6.770;2022-09-17T06:10:05;101197.34;;;10.62;87.51
3294;BME280;1659;51.470;6.770;2022-09-17T06:12:34;101203.56;;;10.59;87.58
3294;BME280;1659;51.470;6.770;2022-09-17T06:15:00;101207.06;;;10.58;87.58
3294;BME280;1659;51.470;6.770;2022-09-17T06:17:27;101215.00;;;10.56;87.57
3294;BME280;1659;51.470;6.770;2022-09-17T06:19:53;101223.84;;;10.55;87.53
3294;BME280;1659;51.470;6.770;2022-09-17T06:22:20;101218.53;;;10.57;87.86
3294;BME280;1659;51.470;6.770;2022-09-17T06:24:47;101224.69;;;10.59;87.88
3294;BME280;1659;51.470;6.770;2022-09-17T06:27:14;101223.78;;;10.60;87.74
3294;BME280;1659;51.470;6.770;2022-09-17T06:29:41;101222.00;;;10.61;87.72
3294;BME280;1659;51.470;6.770;2022-09-17T06:32:08;101227.28;;;10.62;87.73
3294;BME280;1659;51.470;6.770;2022-09-17T06:34:37;101238.72;;;10.64;87.79
3294;BME280;1659;51.470;6.770;2022-09-17T06:37:04;101228.94;;;10.69;87.99
3294;BME280;1659;51.470;6.770;2022-09-17T06:39:31;101233.25;;;10.78;88.01
3294;BME280;1659;51.470;6.770;2022-09-17T06:41:58;101238.31;;;10.96;87.79
3294;BME280;1659;51.470;6.770;2022-09-17T06:44:24;101230.91;;;11.22;87.30
3294;BME280;1659;51.470;6.770;2022-09-17T06:46:52;101225.34;;;11.43;86.91
3294;BME280;1659;51.470;6.770;2022-09-17T06:49:19;101226.00;;;11.58;86.68
3294;BME280;1659;51.470;6.770;2022-09-17T06:51:46;101217.03;;;11.66;86.35
3294;BME280;1659;51.470;6.770;2022-09-17T06:54:13;101217.06;;;11.63;86.53
3294;BME280;1659;51.470;6.770;2022-09-17T06:56:39;101218.91;;;11.58;86.17
3294;BME280;1659;51.470;6.770;2022-09-17T06:59:06;101218.91;;;11.60;86.44
3294;BME280;1659;51.470;6.770;2022-09-17T07:01:32;101228.44;;;11.70;86.15
3294;BME280;1659;51.470;6.770;2022-09-17T07:04:00;101231.91;;;11.74;85.77
3294;BME280;1659;51.470;6.770;2022-09-17T07:06:27;101224.38;;;12.05;85.80
3294;BME280;1659;51.470;6.770;2022-09-17T07:08:54;101223.94;;;12.75;84.83
3294;BME280;1659;51.470;6.770;2022-09-17T07:11:20;101211.84;;;13.44;83.78
3294;BME280;1659;51.470;6.770;2022-09-17T07:13:47;101226.75;;;14.20;82.95
3294;BME280;1659;51.470;6.770;2022-09-17T07:16:13;101220.06;;;15.02;81.04
3294;BME280;1659;51.470;6.770;2022-09-17T07:18:40;101235.53;;;15.47;78.43
3294;BME280;1659;51.470;6.770;2022-09-17T07:21:08;101231.19;;;15.45;79.14
3294;BME280;1659;51.470;6.770;2022-09-17T07:23:36;101229.88;;;15.30;79.14
3294;BME280;1659;51.470;6.770;2022-09-17T07:26:04;101222.13;;;14.93;79.04
3294;BME280;1659;51.470;6.770;2022-09-17T07:28:31;101211.16;;;14.41;79.78
3294;BME280;1659;51.470;6.770;2022-09-17T07:30:57;101214.09;;;13.97;79.91
3294;BME280;1659;51.470;6.770;2022-09-17T07:33:27;101217.50;;;13.66;80.29
3294;BME280;1659;51.470;6.770;2022-09-17T07:35:55;101211.69;;;13.50;80.82
3294;BME280;1659;51.470;6.770;2022-09-17T07:38:24;101215.66;;;14.04;80.13
3294;BME280;1659;51.470;6.770;2022-09-17T07:40:55;101213.25;;;14.92;77.26
3294;BME280;1659;51.470;6.770;2022-09-17T07:43:22;101208.22;;;15.69;75.56
3294;BME280;1659;51.470;6.770;2022-09-17T07:45:49;101202.16;;;16.42;74.46
3294;BME280;1659;51.470;6.770;2022-09-17T07:48:15;101204.53;;;16.99;72.71
3294;BME280;1659;51.470;6.770;2022-09-17T07:50:42;101202.41;;;17.53;71.74
3294;BME280;1659;51.470;6.770;2022-09-17T07:53:08;101203.09;;;18.01;70.74
3294;BME280;1659;51.470;6.770;2022-09-17T07:55:37;101204.03;;;18.41;70.13
3294;BME280;1659;51.470;6.770;2022-09-17T07:58:03;101204.28;;;18.55;70.09
3294;BME280;1659;51.470;6.770;2022-09-17T08:00:30;101207.38;;;18.66;68.35
3294;BME280;1659;51.470;6.770;2022-09-17T08:02:57;101205.59;;;18.86;68.14
3294;BME280;1659;51.470;6.770;2022-09-17T08:05:24;101215.59;;;19.20;67.64
3294;BME280;1659;51.470;6.770;2022-09-17T08:07:51;101201.28;;;19.58;66.88
3294;BME280;1659;51.470;6.770;2022-09-17T08:10:18;101200.56;;;19.91;66.11
3294;BME280;1659;51.470;6.770;2022-09-17T08:12:47;101214.03;;;20.24;65.23
3294;BME280;1659;51.470;6.770;2022-09-17T08:15:14;101206.66;;;20.45;64.25
3294;BME280;1659;51.470;6.770;2022-09-17T08:17:42;101209.34;;;20.45;64.03
3294;BME280;1659;51.470;6.770;2022-09-17T08:20:09;101209.53;;;20.75;63.22
3294;BME280;1659;51.470;6.770;2022-09-17T08:22:35;101213.53;;;20.68;62.84
3294;BME280;1659;51.470;6.770;2022-09-17T08:25:02;101212.41;;;20.72;62.10
3294;BME280;1659;51.470;6.770;2022-09-17T08:27:29;101221.91;;;20.96;61.06
3294;BME280;1659;51.470;6.770;2022-09-17T08:29:57;101210.56;;;21.22;60.89
3294;BME280;1659;51.470;6.770;2022-09-17T08:32:24;101193.22;;;21.90;59.36
3294;BME280;1659;51.470;6.770;2022-09-17T08:34:51;101205.13;;;22.16;58.39
3294;BME280;1659;51.470;6.770;2022-09-17T08:37:18;101198.28;;;22.55;58.24
3294;BME280;1659;51.470;6.770;2022-09-17T08:39:45;101194.31;;;22.90;57.57
3294;BME280;1659;51.470;6.770;2022-09-17T08:42:15;101202.84;;;23.25;56.78
3294;BME280;1659;51.470;6.770;2022-09-17T08:44:46;101202.00;;;23.25;56.92
3294;BME280;1659;51.470;6.770;2022-09-17T08:47:20;101212.09;;;23.63;55.99
3294;BME280;1659;51.470;6.770;2022-09-17T08:49:52;101209.66;;;23.45;55.38
3294;BME280;1659;51.470;6.770;2022-09-17T08:52:52;101212.91;;;23.09;56.42
3294;BME280;1659;51.470;6.770;2022-09-17T08:55:33;101205.88;;;23.06;55.88
3294;BME280;1659;51.470;6.770;2022-09-17T08:58:17;101208.44;;;23.22;53.86
3294;BME280;1659;51.470;6.770;2022-09-17T09:00:50;101200.22;;;23.38;53.00
3294;BME280;1659;51.470;6.770;2022-09-17T09:03:30;101208.75;;;23.17;53.52
3294;BME280;1659;51.470;6.770;2022-09-17T09:05:59;101215.13;;;22.88;54.20
3294;BME280;1659;51.470;6.770;2022-09-17T09:08:29;101207.63;;;23.07;52.84
3294;BME280;1659;51.470;6.770;2022-09-17T09:11:02;101203.31;;;23.32;51.02
3294;BME280;1659;51.470;6.770;2022-09-17T09:13:33;101199.34;;;23.37;51.59
3294;BME280;1659;51.470;6.770;2022-09-17T09:16:02;101206.16;;;23.70;50.47
3294;BME280;1659;51.470;6.770;2022-09-17T09:18:35;101209.19;;;24.06;50.35
3294;BME280;1659;51.470;6.770;2022-09-17T09:21:19;101206.22;;;24.36;49.77
3294;BME280;1659;51.470;6.770;2022-09-17T09:23:51;101203.53;;;23.83;50.78
3294;BME280;1659;51.470;6.770;2022-09-17T09:26:22;101207.84;;;23.31;51.14
3294;BME280;1659;51.470;6.770;2022-09-17T09:28:59;101223.19;;;22.44;52.46
3294;BME280;1659;51.470;6.770;2022-09-17T09:31:37;101216.38;;;21.30;53.40
3294;BME280;1659;51.470;6.770;2022-09-17T09:34:11;101217.31;;;20.98;54.48
3294;BME280;1659;51.470;6.770;2022-09-17T09:36:38;101210.38;;;20.93;53.75
3294;BME280;1659;51.470;6.770;2022-09-17T09:39:13;101222.66;;;20.82;53.75
3294;BME280;1659;51.470;6.770;2022-09-17T09:41:43;101221.06;;;21.27;52.79
3294;BME280;1659;51.470;6.770;2022-09-17T09:44:12;101219.84;;;21.33;52.48
3294;BME280;1659;51.470;6.770;2022-09-17T09:46:52;101221.59;;;20.84;52.25
3294;BME280;1659;51.470;6.770;2022-09-17T09:49:33;101220.59;;;20.18;53.83
3294;BME280;1659;51.470;6.770;2022-09-17T09:52:14;101216.66;;;19.91;54.39
3294;BME280;1659;51.470;6.770;2022-09-17T09:54:54;101216.66;;;19.72;54.37
3294;BME280;1659;51.470;6.770;2022-09-17T09:57:36;101209.09;;;19.62;54.50
3294;BME280;1659;51.470;6.770;2022-09-17T10:00:26;101212.00;;;20.12;53.81
3294;BME280;1659;51.470;6.770;2022-09-17T10:02:58;101209.03;;;20.51;53.49
3294;BME280;1659;51.470;6.770;2022-09-17T10:05:27;101209.50;;;20.42;52.80
3294;BME280;1659;51.470;6.770;2022-09-17T10:07:54;101212.69;;;19.98;53.81
3294;BME280;1659;51.470;6.770;2022-09-17T10:10:21;101207.13;;;19.66;54.28
3294;BME280;1659;51.470;6.770;2022-09-17T10:12:48;101209.78;;;19.30;55.01
3294;BME280;1659;51.470;6.770;2022-09-17T10:15:23;101215.09;;;18.93;55.34
3294;BME280;1659;51.470;6.770;2022-09-17T10:18:10;101203.13;;;18.42;56.50
3294;BME280;1659;51.470;6.770;2022-09-17T10:20:56;101201.59;;;18.16;57.36
3294;BME280;1659;51.470;6.770;2022-09-17T10:23:26;101191.69;;;18.38;57.79
3294;BME280;1659;51.470;6.770;2022-09-17T10:25:53;101190.53;;;19.21;57.18
3294;BME280;1659;51.470;6.770;2022-09-17T10:28:39;101186.03;;;20.12;56.11
3294;BME280;1659;51.470;6.770;2022-09-17T10:31:10;101178.38;;;20.55;55.32
3294;BME280;1659;51.470;6.770;2022-09-17T10:33:52;101190.59;;;20.28;55.33
3294;BME280;1659;51.470;6.770;2022-09-17T10:36:39;101187.78;;;19.59;55.36
3294;BME280;1659;51.470;6.770;2022-09-17T10:39:33;101192.75;;;18.74;55.67
3294;BME280;1659;51.470;6.770;2022-09-17T10:42:14;101187.38;;;18.94;56.41
3294;BME280;1659;51.470;6.770;2022-09-17T10:44:50;101188.97;;;19.54;55.62
3294;BME280;1659;51.470;6.770;2022-09-17T10:47:21;101182.56;;;20.10;54.15
3294;BME280;1659;51.470;6.770;2022-09-17T10:49:48;101180.34;;;20.69;52.62
3294;BME280;1659;51.470;6.770;2022-09-17T10:52:24;101171.72;;;20.96;52.54
3294;BME280;1659;51.470;6.770;2022-09-17T10:55:16;101167.13;;;21.14;51.79
3294;BME280;1659;51.470;6.770;2022-09-17T10:58:02;101163.00;;;21.39;51.47
3294;BME280;1659;51.470;6.770;2022-09-17T11:00:37;101171.00;;;21.24;51.08
3294;BME280;1659;51.470;6.770;2022-09-17T11:03:30;101172.63;;;20.79;50.50
3294;BME280;1659;51.470;6.770;2022-09-17T11:06:17;101209.66;;;20.39;51.01
3294;BME280;1659;51.470;6.770;2022-09-17T11:08:54;101225.47;;;19.75;51.23
3294;BME280;1659;51.470;6.770;2022-09-17T11:11:34;101237.22;;;18.97;52.34
3294;BME280;1659;51.470;6.770;2022-09-17T11:14:11;101239.22;;;18.11;53.36
3294;BME280;1659;51.470;6.770;2022-09-17T11:16:47;101249.66;;;17.29;54.81
3294;BME280;1659;51.470;6.770;2022-09-17T11:19:23;101240.28;;;16.46;56.60
3294;BME280;1659;51.470;6.770;2022-09-17T11:21:55;101244.53;;;15.72;58.27
3294;BME280;1659;51.470;6.770;2022-09-17T11:24:45;101255.06;;;15.18;59.51
3294;BME280;1659;51.470;6.770;2022-09-17T11:27:22;101257.25;;;14.74;60.82
3294;BME280;1659;51.470;6.770;2022-09-17T11:30:13;101261.09;;;14.29;62.12
3294;BME280;1659;51.470;6.770;2022-09-17T11:33:10;101254.91;;;13.94;63.41
3294;BME280;1659;51.470;6.770;2022-09-17T11:35:45;101269.50;;;13.76;63.86
3294;BME280;1659;51.470;6.770;2022-09-17T11:38:17;101259.94;;;13.69;64.44
3294;BME280;1659;51.470;6.770;2022-09-17T11:40:49;101246.84;;;13.62;64.81
3294;BME280;1659;51.470;6.770;2022-09-17T11:43:24;101239.91;;;13.56;64.94
3294;BME280;1659;51.470;6.770;2022-09-17T11:45:59;101230.94;;;13.60;64.90
3294;BME280;1659;51.470;6.770;2022-09-17T11:48:31;101239.66;;;13.65;65.17
3294;BME280;1659;51.470;6.770;2022-09-17T11:51:06;101238.50;;;14.11;64.97
3294;BME280;1659;51.470;6.770;2022-09-17T11:53:42;101240.53;;;14.69;64.23
3294;BME280;1659;51.470;6.770;2022-09-17T11:56:15;101233.22;;;15.07;63.69
3294;BME280;1659;51.470;6.770;2022-09-17T11:58:45;101235.16;;;15.32;63.24
3294;BME280;1659;51.470;6.770;2022-09-17T12:01:17;101245.47;;;15.42;63.13
3294;BME280;1659;51.470;6.770;2022-09-17T12:03:51;101242.41;;;15.26;63.70
3294;BME280;1659;51.470;6.770;2022-09-17T12:06:24;101243.88;;;15.07;63.77
3294;BME280;1659;51.470;6.770;2022-09-17T12:08:58;101236.69;;;14.79;64.43
3294;BME280;1659;51.470;6.770;2022-09-17T12:11:32;101245.72;;;14.41;65.51
3294;BME280;1659;51.470;6.770;2022-09-17T12:14:03;101233.56;;;13.96;66.93
3294;BME280;1659;51.470;6.770;2022-09-17T12:16:34;101239.00;;;13.55;67.75
3294;BME280;1659;51.470;6.770;2022-09-17T12:19:11;101227.56;;;13.13;68.88
3294;BME280;1659;51.470;6.770;2022-09-17T12:21:42;101228.19;;;12.83;69.39
3294;BME280;1659;51.470;6.770;2022-09-17T12:24:16;101234.50;;;12.76;70.04
3294;BME280;1659;51.470;6.770;2022-09-17T12:27:03;101229.53;;;13.03;70.15
3294;BME280;1659;51.470;6.770;2022-09-17T12:29:43;101229.38;;;13.87;69.22
3294;BME280;1659;51.470;6.770;2022-09-17T12:32:28;101218.81;;;14.84;68.22
3294;BME280;1659;51.470;6.770;2022-09-17T12:35:05;101207.44;;;15.94;66.79
3294;BME280;1659;51.470;6.770;2022-09-17T12:37:44;101202.63;;;17.03;65.06
3294;BME280;1659;51.470;6.770;2022-09-17T12:40:20;101189.75;;;18.01;63.57
3294;BME280;1659;51.470;6.770;2022-09-17T12:43:06;101195.56;;;18.71;62.39
3294;BME280;1659;51.470;6.770;2022-09-17T12:45:55;101177.34;;;19.53;61.05
3294;BME280;1659;51.470;6.770;2022-09-17T12:48:39;101179.22;;;20.23;59.68
3294;BME280;1659;51.470;6.770;2022-09-17T12:51:26;101180.19;;;20.72;58.70
3294;BME280;1659;51.470;6.770;2022-09-17T12:54:02;101169.63;;;21.17;58.45
3294;BME280;1659;51.470;6.770;2022-09-17T12:56:48;101173.59;;;21.58;57.13
3294;BME280;1659;51.470;6.770;2022-09-17T12:59:21;101170.19;;;21.70;57.08
3294;BME280;1659;51.470;6.770;2022-09-17T13:01:55;101163.69;;;21.74;56.01
3294;BME280;1659;51.470;6.770;2022-09-17T13:04:55;101167.47;;;21.86;56.09
3294;BME280;1659;51.470;6.770;2022-09-17T13:07:52;101153.59;;;22.22;55.32
3294;BME280;1659;51.470;6.770;2022-09-17T13:10:38;101156.84;;;22.99;54.34
3294;BME280;1659;51.470;6.770;2022-09-17T13:13:21;101147.22;;;23.24;53.96
3294;BME280;1659;51.470;6.770;2022-09-17T13:15:59;101143.72;;;23.49;53.57
3294;BME280;1659;51.470;6.770;2022-09-17T13:18:34;101144.34;;;23.80;52.75
3294;BME280;1659;51.470;6.770;2022-09-17T13:21:06;101141.81;;;24.17;52.64
3294;BME280;1659;51.470;6.770;2022-09-17T13:23:40;101157.34;;;24.39;52.22
3294;BME280;1659;51.470;6.770;2022-09-17T13:26:08;101135.66;;;24.66;51.05
3294;BME280;1659;51.470;6.770;2022-09-17T13:28:41;101148.84;;;24.45;50.76
3294;BME280;1659;51.470;6.770;2022-09-17T13:31:10;101145.69;;;24.13;50.95
3294;BME280;1659;51.470;6.770;2022-09-17T13:33:51;101217.41;;;23.23;52.39
3294;BME280;1659;51.470;6.770;2022-09-17T13:36:51;101266.75;;;21.11;53.97
3294;BME280;1659;51.470;6.770;2022-09-17T13:39:37;101235.47;;;18.36;58.78